sensor_id;sensor_type;location;lat;lon;timestamp;temperature;humidity
26982;DHT22;14533;50.848;4.380;2022-08-18T00:01:20;21.20;99.90
26982;DHT22;14533;50.848;4.380;2022-08-18T00:03:48;21.20;99.90
26982;DHT22;14533;50.848;4.380;2022-08-18T00:06:15;21.20;99.90
26982;DHT22;14533;50.848;4.380;2022-08-18T00:08:40;21.20;99.90
26982;DHT22;14533;50.848;4.380;2022-08-18T00:11:06;21.20;99.90
26982;DHT22;14533;50.848;4.380;2022-08-18T00:13:33;21.20;99.90
26982;DHT22;14533;50.848;4.380;2022-08-18T00:15:59;21.10;99.90
26982;DHT22;14533;50.848;4.380;2022-08-18T00:18:25;21.10;99.90
26982;DHT22;14533;50.848;4.380;2022-08-18T00:20:50;21.10;99.90
26982;DHT22;14533;50.848;4.380;2022-08-18T00:23:16;21.10;99.90
26982;DHT22;14533;50.848;4.380;2022-08-18T00:25:42;21.00;99.90
26982;DHT22;14533;50.848;4.380;2022-08-18T00:28:10;21.00;99.90
26982;DHT22;14533;50.848;4.380;2022-08-18T00:30:35;21.10;99.90
26982;DHT22;14533;50.848;4.380;2022-08-18T00:33:01;21.10;99.90
26982;DHT22;14533;50.848;4.380;2022-08-18T00:35:32;21.10;99.90
26982;DHT22;14533;50.848;4.380;2022-08-18T00:38:00;21.00;99.90
26982;DHT22;14533;50.848;4.380;2022-08-18T00:40:33;21.00;99.90
26982;DHT22;14533;50.848;4.380;2022-08-18T00:43:03;21.00;99.90
26982;DHT22;14533;50.848;4.380;2022-08-18T00:45:37;21.00;99.90
26982;DHT22;14533;50.848;4.380;2022-08-18T00:48:04;21.10;99.90
26982;DHT22;14533;50.848;4.380;2022-08-18T00:55:51;21.10;99.90
26982;DHT22;14533;50.848;4.380;2022-08-18T00:58:33;21.10;99.90
26982;DHT22;14533;50.848;4.380;2022-08-18T01:01:03;21.10;99.90
26982;DHT22;14533;50.848;4.380;2022-08-18T01:03:30;21.10;99.90
26982;DHT22;14533;50.848;4.380;2022-08-18T01:06:03;21.20;99.90
26982;DHT22;14533;50.848;4.380;2022-08-18T01:08:31;21.40;99.90
26982;DHT22;14533;50.848;4.380;2022-08-18T01:10:58;21.40;99.90
26982;DHT22;14533;50.848;4.380;2022-08-18T01:13:30;21.40;99.90
26982;DHT22;14533;50.848;4.380;2022-08-18T01:15:57;21.50;99.90
26982;DHT22;14533;50.848;4.380;2022-08-18T01:18:23;21.40;99.90
26982;DHT22;14533;50.848;4.380;2022-08-18T01:21:21;21.20;99.90
26982;DHT22;14533;50.848;4.380;2022-08-18T01:24:09;20.80;99.90
26982;DHT22;14533;50.848;4.380;2022-08-18T01:26:39;20.60;99.90
26982;DHT22;14533;50.848;4.380;2022-08-18T01:29:09;20.70;99.90
26982;DHT22;14533;50.848;4.380;2022-08-18T01:31:42;20.60;99.90
26982;DHT22;14533;50.848;4.380;2022-08-18T01:34:10;20.50;99.90
26982;DHT22;14533;50.848;4.380;2022-08-18T01:36:39;20.50;99.90
26982;DHT22;14533;50.848;4.380;2022-08-18T01:39:07;20.60;99.90
26982;DHT22;14533;50.848;4.380;2022-08-18T01:41:34;20.70;99.90
26982;DHT22;14533;50.848;4.380;2022-08-18T01:44:01;20.80;99.90
26982;DHT22;14533;50.848;4.380;2022-08-18T01:46:29;20.90;99.90
26982;DHT22;14533;50.848;4.380;2022-08-18T01:48:56;21.00;99.90
26982;DHT22;14533;50.848;4.380;2022-08-18T01:51:29;21.10;99.90
26982;DHT22;14533;50.848;4.380;2022-08-18T01:53:57;21.10;99.90
26982;DHT22;14533;50.848;4.380;2022-08-18T01:56:24;21.20;99.90
26982;DHT22;14533;50.848;4.380;2022-08-18T01:58:52;21.40;99.90
26982;DHT22;14533;50.848;4.380;2022-08-18T02:01:19;21.50;99.90
26982;DHT22;14533;50.848;4.380;2022-08-18T02:03:52;21.60;99.90
26982;DHT22;14533;50.848;4.380;2022-08-18T02:06:19;21.50;99.90
26982;DHT22;14533;50.848;4.380;2022-08-18T02:08:46;21.40;99.90
26982;DHT22;14533;50.848;4.380;2022-08-18T02:11:13;21.40;99.90
26982;DHT22;14533;50.848;4.380;2022-08-18T02:13:39;21.40;99.90
26982;DHT22;14533;50.848;4.380;2022-08-18T02:16:06;21.40;99.90
26982;DHT22;14533;50.848;4.380;2022-08-18T02:18:34;21.60;99.90
26982;DHT22;14533;50.848;4.380;2022-08-18T02:21:07;21.80;99.90
26982;DHT22;14533;50.848;4.380;2022-08-18T02:23:33;21.80;99.90
26982;DHT22;14533;50.848;4.380;2022-08-18T02:26:04;21.60;99.90
26982;DHT22;14533;50.848;4.380;2022-08-18T02:28:30;21.50;99.90
26982;DHT22;14533;50.848;4.380;2022-08-18T02:30:56;21.30;99.90
26982;DHT22;14533;50.848;4.380;2022-08-18T02:33:22;21.40;99.90
26982;DHT22;14533;50.848;4.380;2022-08-18T02:35:53;21.30;99.90
26982;DHT22;14533;50.848;4.380;2022-08-18T02:38:18;21.10;99.90
26982;DHT22;14533;50.848;4.380;2022-08-18T02:40:44;21.10;99.90
26982;DHT22;14533;50.848;4.380;2022-08-18T02:43:11;21.10;99.90
26982;DHT22;14533;50.848;4.380;2022-08-18T02:45:37;21.30;99.90
26982;DHT22;14533;50.848;4.380;2022-08-18T02:48:04;21.40;99.90
26982;DHT22;14533;50.848;4.380;2022-08-18T02:50:30;21.60;99.90
26982;DHT22;14533;50.848;4.380;2022-08-18T02:52:56;21.50;99.90
26982;DHT22;14533;50.848;4.380;2022-08-18T02:55:21;21.30;99.90
26982;DHT22;14533;50.848;4.380;2022-08-18T02:57:51;21.20;99.90
26982;DHT22;14533;50.848;4.380;2022-08-18T03:00:17;21.20;99.90
26982;DHT22;14533;50.848;4.380;2022-08-18T03:02:47;21.20;99.90
26982;DHT22;14533;50.848;4.380;2022-08-18T03:05:14;21.10;99.90
26982;DHT22;14533;50.848;4.380;2022-08-18T03:07:39;21.10;99.90
26982;DHT22;14533;50.848;4.380;2022-08-18T03:10:05;21.10;99.90
26982;DHT22;14533;50.848;4.380;2022-08-18T03:12:31;21.00;99.90
26982;DHT22;14533;50.848;4.380;2022-08-18T03:14:57;21.00;99.90
26982;DHT22;14533;50.848;4.380;2022-08-18T03:17:22;21.00;99.90
26982;DHT22;14533;50.848;4.380;2022-08-18T03:19:48;20.90;99.90
26982;DHT22;14533;50.848;4.380;2022-08-18T03:22:14;21.00;99.90
26982;DHT22;14533;50.848;4.380;2022-08-18T03:24:40;21.00;99.90
26982;DHT22;14533;50.848;4.380;2022-08-18T03:27:06;21.00;99.90
26982;DHT22;14533;50.848;4.380;2022-08-18T03:29:33;21.00;99.90
26982;DHT22;14533;50.848;4.380;2022-08-18T03:32:04;21.10;99.90
26982;DHT22;14533;50.848;4.380;2022-08-18T03:34:31;21.00;99.90
26982;DHT22;14533;50.848;4.380;2022-08-18T03:36:57;21.00;99.90
26982;DHT22;14533;50.848;4.380;2022-08-18T03:39:23;20.90;99.90
26982;DHT22;14533;50.848;4.380;2022-08-18T03:41:51;21.00;99.90
26982;DHT22;14533;50.848;4.380;2022-08-18T03:44:21;21.10;99.90
26982;DHT22;14533;50.848;4.380;2022-08-18T03:46:48;21.10;99.90
26982;DHT22;14533;50.848;4.380;2022-08-18T03:49:15;21.10;99.90
26982;DHT22;14533;50.848;4.380;2022-08-18T03:51:44;21.30;99.90
26982;DHT22;14533;50.848;4.380;2022-08-18T03:54:11;21.20;99.90
26982;DHT22;14533;50.848;4.380;2022-08-18T03:56:41;21.30;99.90
26982;DHT22;14533;50.848;4.380;2022-08-18T03:59:12;21.20;99.90
26982;DHT22;14533;50.848;4.380;2022-08-18T04:01:41;21.10;99.90
26982;DHT22;14533;50.848;4.380;2022-08-18T04:04:12;21.10;99.90
26982;DHT22;14533;50.848;4.380;2022-08-18T04:06:52;21.20;99.90
26982;DHT22;14533;50.848;4.380;2022-08-18T04:09:20;21.40;99.90
26982;DHT22;14533;50.848;4.380;2022-08-18T04:11:46;21.50;99.90
26982;DHT22;14533;50.848;4.380;2022-08-18T04:14:14;21.50;99.90
26982;DHT22;14533;50.848;4.380;2022-08-18T04:16:41;21.50;99.90
26982;DHT22;14533;50.848;4.380;2022-08-18T04:19:08;21.30;99.90
26982;DHT22;14533;50.848;4.380;2022-08-18T04:21:36;21.20;99.90
26982;DHT22;14533;50.848;4.380;2022-08-18T04:24:03;21.10;99.90
26982;DHT22;14533;50.848;4.380;2022-08-18T04:26:35;21.10;99.90
26982;DHT22;14533;50.848;4.380;2022-08-18T04:29:01;21.10;99.90
26982;DHT22;14533;50.848;4.380;2022-08-18T04:31:27;21.10;99.90
26982;DHT22;14533;50.848;4.380;2022-08-18T04:33:55;21.10;99.90
26982;DHT22;14533;50.848;4.380;2022-08-18T04:36:21;21.20;99.90
26982;DHT22;14533;50.848;4.380;2022-08-18T04:38:47;21.40;99.90
26982;DHT22;14533;50.848;4.380;2022-08-18T04:41:13;21.60;99.90
26982;DHT22;14533;50.848;4.380;2022-08-18T04:43:40;21.70;99.90
26982;DHT22;14533;50.848;4.380;2022-08-18T04:46:06;21.50;99.90
26982;DHT22;14533;50.848;4.380;2022-08-18T04:48:34;21.60;99.90
26982;DHT22;14533;50.848;4.380;2022-08-18T04:53:34;21.40;99.90
26982;DHT22;14533;50.848;4.380;2022-08-18T04:56:21;21.30;99.90
26982;DHT22;14533;50.848;4.380;2022-08-18T04:59:00;21.40;99.90
26982;DHT22;14533;50.848;4.380;2022-08-18T05:01:29;21.60;99.90
26982;DHT22;14533;50.848;4.380;2022-08-18T05:03:57;21.50;99.90
26982;DHT22;14533;50.848;4.380;2022-08-18T05:06:24;21.40;99.90
26982;DHT22;14533;50.848;4.380;2022-08-18T05:08:56;21.30;99.90
26982;DHT22;14533;50.848;4.380;2022-08-18T05:11:24;21.30;99.90
26982;DHT22;14533;50.848;4.380;2022-08-18T05:13:50;21.30;99.90
26982;DHT22;14533;50.848;4.380;2022-08-18T05:16:20;21.30;99.90
26982;DHT22;14533;50.848;4.380;2022-08-18T05:18:45;21.40;99.90
26982;DHT22;14533;50.848;4.380;2022-08-18T05:21:11;21.40;99.90
26982;DHT22;14533;50.848;4.380;2022-08-18T05:23:41;21.50;99.90
26982;DHT22;14533;50.848;4.380;2022-08-18T05:26:08;21.40;99.90
26982;DHT22;14533;50.848;4.380;2022-08-18T05:28:35;21.40;99.90
26982;DHT22;14533;50.848;4.380;2022-08-18T05:31:16;21.50;99.90
26982;DHT22;14533;50.848;4.380;2022-08-18T05:33:44;21.60;99.90
26982;DHT22;14533;50.848;4.380;2022-08-18T05:39:46;21.70;99.90
26982;DHT22;14533;50.848;4.380;2022-08-18T05:42:19;21.70;99.90
26982;DHT22;14533;50.848;4.380;2022-08-18T05:44:48;21.60;99.90
26982;DHT22;14533;50.848;4.380;2022-08-18T05:47:27;21.50;99.90
26982;DHT22;14533;50.848;4.380;2022-08-18T05:50:16;21.50;99.90
26982;DHT22;14533;50.848;4.380;2022-08-18T05:53:09;21.60;99.90
26982;DHT22;14533;50.848;4.380;2022-08-18T05:55:46;21.60;99.90
26982;DHT22;14533;50.848;4.380;2022-08-18T05:58:39;21.60;99.90
26982;DHT22;14533;50.848;4.380;2022-08-18T06:01:14;21.80;99.90
26982;DHT22;14533;50.848;4.380;2022-08-18T06:04:05;22.10;99.90
26982;DHT22;14533;50.848;4.380;2022-08-18T06:06:33;22.30;99.90
26982;DHT22;14533;50.848;4.380;2022-08-18T06:09:18;22.20;99.90
26982;DHT22;14533;50.848;4.380;2022-08-18T06:11:44;22.10;99.90
26982;DHT22;14533;50.848;4.380;2022-08-18T06:14:10;22.50;99.90
26982;DHT22;14533;50.848;4.380;2022-08-18T06:20:06;22.90;99.90
26982;DHT22;14533;50.848;4.380;2022-08-18T06:22:58;23.30;99.90
26982;DHT22;14533;50.848;4.380;2022-08-18T06:28:13;23.90;99.90
26982;DHT22;14533;50.848;4.380;2022-08-18T06:33:35;24.80;99.90
26982;DHT22;14533;50.848;4.380;2022-08-18T06:43:57;25.40;99.90
26982;DHT22;14533;50.848;4.380;2022-08-18T06:49:16;24.70;99.90
26982;DHT22;14533;50.848;4.380;2022-08-18T06:51:45;24.30;99.90
26982;DHT22;14533;50.848;4.380;2022-08-18T06:54:29;24.20;99.90
26982;DHT22;14533;50.848;4.380;2022-08-18T06:56:56;24.30;99.90
26982;DHT22;14533;50.848;4.380;2022-08-18T07:02:01;24.60;99.90
26982;DHT22;14533;50.848;4.380;2022-08-18T07:06:55;24.00;99.90
26982;DHT22;14533;50.848;4.380;2022-08-18T07:09:24;23.80;99.90
26982;DHT22;14533;50.848;4.380;2022-08-18T07:14:24;24.40;99.90
26982;DHT22;14533;50.848;4.380;2022-08-18T07:17:05;25.50;99.90
26982;DHT22;14533;50.848;4.380;2022-08-18T07:19:31;26.10;99.90
26982;DHT22;14533;50.848;4.380;2022-08-18T07:22:06;26.20;99.90
26982;DHT22;14533;50.848;4.380;2022-08-18T07:24:40;25.70;99.90
26982;DHT22;14533;50.848;4.380;2022-08-18T07:30:24;23.90;99.90
26982;DHT22;14533;50.848;4.380;2022-08-18T07:32:45;23.60;99.90
26982;DHT22;14533;50.848;4.380;2022-08-18T07:35:34;23.60;99.90
26982;DHT22;14533;50.848;4.380;2022-08-18T07:38:16;23.60;99.90
26982;DHT22;14533;50.848;4.380;2022-08-18T07:40:50;24.60;99.90
26982;DHT22;14533;50.848;4.380;2022-08-18T07:43:28;26.90;99.90
26982;DHT22;14533;50.848;4.380;2022-08-18T07:46:09;29.20;99.90
26982;DHT22;14533;50.848;4.380;2022-08-18T07:48:36;29.30;99.90
26982;DHT22;14533;50.848;4.380;2022-08-18T07:59:08;27.60;99.90
26982;DHT22;14533;50.848;4.380;2022-08-18T08:01:45;27.80;99.90
26982;DHT22;14533;50.848;4.380;2022-08-18T08:04:38;28.70;99.90
26982;DHT22;14533;50.848;4.380;2022-08-18T08:07:13;30.10;98.10
26982;DHT22;14533;50.848;4.380;2022-08-18T08:12:36;29.80;99.00
26982;DHT22;14533;50.848;4.380;2022-08-18T08:18:08;33.20;90.20
26982;DHT22;14533;50.848;4.380;2022-08-18T08:33:37;32.20;89.80
26982;DHT22;14533;50.848;4.380;2022-08-18T08:36:09;32.20;89.80
26982;DHT22;14533;50.848;4.380;2022-08-18T08:38:44;33.20;87.10
26982;DHT22;14533;50.848;4.380;2022-08-18T08:41:22;34.40;82.30
26982;DHT22;14533;50.848;4.380;2022-08-18T08:46:29;34.80;78.10
26982;DHT22;14533;50.848;4.380;2022-08-18T08:49:06;34.00;79.20
26982;DHT22;14533;50.848;4.380;2022-08-18T08:51:38;32.60;86.00
26982;DHT22;14533;50.848;4.380;2022-08-18T08:54:15;33.70;82.50
26982;DHT22;14533;50.848;4.380;2022-08-18T08:56:44;34.50;79.00
26982;DHT22;14533;50.848;4.380;2022-08-18T08:59:14;34.90;77.30
26982;DHT22;14533;50.848;4.380;2022-08-18T09:02:11;35.00;75.70
26982;DHT22;14533;50.848;4.380;2022-08-18T09:05:08;34.70;76.10
26982;DHT22;14533;50.848;4.380;2022-08-18T09:08:05;34.70;76.10
26982;DHT22;14533;50.848;4.380;2022-08-18T09:24:56;35.20;71.60
26982;DHT22;14533;50.848;4.380;2022-08-18T09:37:30;34.00;74.40
26982;DHT22;14533;50.848;4.380;2022-08-18T09:40:17;32.90;77.10
26982;DHT22;14533;50.848;4.380;2022-08-18T09:43:13;33.40;77.30
26982;DHT22;14533;50.848;4.380;2022-08-18T09:46:02;33.00;77.50
26982;DHT22;14533;50.848;4.380;2022-08-18T09:48:41;32.80;77.60
26982;DHT22;14533;50.848;4.380;2022-08-18T10:02:11;31.50;80.50
26982;DHT22;14533;50.848;4.380;2022-08-18T10:04:41;30.80;83.40
26982;DHT22;14533;50.848;4.380;2022-08-18T10:07:31;30.90;84.20
26982;DHT22;14533;50.848;4.380;2022-08-18T10:18:03;28.60;91.60
26982;DHT22;14533;50.848;4.380;2022-08-18T10:21:08;28.40;92.10
26982;DHT22;14533;50.848;4.380;2022-08-18T10:23:51;28.60;92.10
26982;DHT22;14533;50.848;4.380;2022-08-18T10:31:32;30.40;88.80
26982;DHT22;14533;50.848;4.380;2022-08-18T10:34:49;30.60;88.40
26982;DHT22;14533;50.848;4.380;2022-08-18T10:39:58;29.50;89.90
26982;DHT22;14533;50.848;4.380;2022-08-18T10:42:49;28.60;91.80
26982;DHT22;14533;50.848;4.380;2022-08-18T10:45:33;29.00;92.30
26982;DHT22;14533;50.848;4.380;2022-08-18T10:48:10;29.90;90.40
26982;DHT22;14533;50.848;4.380;2022-08-18T10:50:54;30.20;90.60
26982;DHT22;14533;50.848;4.380;2022-08-18T10:58:52;29.50;91.10
26982;DHT22;14533;50.848;4.380;2022-08-18T11:04:20;28.90;91.40
26982;DHT22;14533;50.848;4.380;2022-08-18T11:06:50;28.90;91.40
26982;DHT22;14533;50.848;4.380;2022-08-18T11:09:24;29.00;91.00
26982;DHT22;14533;50.848;4.380;2022-08-18T11:11:53;29.10;90.80
26982;DHT22;14533;50.848;4.380;2022-08-18T11:19:36;29.20;90.60
26982;DHT22;14533;50.848;4.380;2022-08-18T11:22:03;29.70;89.10
26982;DHT22;14533;50.848;4.380;2022-08-18T11:24:30;29.70;87.50
26982;DHT22;14533;50.848;4.380;2022-08-18T11:27:18;29.50;89.10
26982;DHT22;14533;50.848;4.380;2022-08-18T11:29:44;29.10;90.90
26982;DHT22;14533;50.848;4.380;2022-08-18T11:34:49;29.00;91.40
26982;DHT22;14533;50.848;4.380;2022-08-18T11:37:33;28.60;91.70
26982;DHT22;14533;50.848;4.380;2022-08-18T11:40:02;28.40;92.60
26982;DHT22;14533;50.848;4.380;2022-08-18T11:42:32;28.50;92.70
26982;DHT22;14533;50.848;4.380;2022-08-18T11:45:19;28.20;92.90
26982;DHT22;14533;50.848;4.380;2022-08-18T12:01:49;28.70;89.30
26982;DHT22;14533;50.848;4.380;2022-08-18T12:04:36;28.10;91.00
26982;DHT22;14533;50.848;4.380;2022-08-18T12:07:09;27.80;91.60
26982;DHT22;14533;50.848;4.380;2022-08-18T12:12:50;28.50;90.80
26982;DHT22;14533;50.848;4.380;2022-08-18T12:17:44;29.00;90.80
26982;DHT22;14533;50.848;4.380;2022-08-18T12:20:11;29.50;88.50
26982;DHT22;14533;50.848;4.380;2022-08-18T12:22:40;29.70;87.60
26982;DHT22;14533;50.848;4.380;2022-08-18T12:25:13;29.70;87.20
26982;DHT22;14533;50.848;4.380;2022-08-18T12:27:39;29.30;88.50
26982;DHT22;14533;50.848;4.380;2022-08-18T12:30:06;29.10;89.20
26982;DHT22;14533;50.848;4.380;2022-08-18T12:32:33;29.10;90.00
26982;DHT22;14533;50.848;4.380;2022-08-18T12:35:00;29.20;88.90
26982;DHT22;14533;50.848;4.380;2022-08-18T12:37:27;28.60;90.30
26982;DHT22;14533;50.848;4.380;2022-08-18T12:39:54;28.20;91.30
26982;DHT22;14533;50.848;4.380;2022-08-18T12:42:21;28.10;91.80
26982;DHT22;14533;50.848;4.380;2022-08-18T12:44:47;28.20;92.00
26982;DHT22;14533;50.848;4.380;2022-08-18T12:47:19;28.60;90.90
26982;DHT22;14533;50.848;4.380;2022-08-18T12:49:46;29.20;90.20
26982;DHT22;14533;50.848;4.380;2022-08-18T12:52:12;29.60;87.40
26982;DHT22;14533;50.848;4.380;2022-08-18T12:54:38;29.80;86.90
26982;DHT22;14533;50.848;4.380;2022-08-18T12:57:07;29.70;84.90
26982;DHT22;14533;50.848;4.380;2022-08-18T12:59:34;29.80;84.40
26982;DHT22;14533;50.848;4.380;2022-08-18T13:02:03;30.20;82.80
26982;DHT22;14533;50.848;4.380;2022-08-18T13:04:29;30.70;83.00
26982;DHT22;14533;50.848;4.380;2022-08-18T13:06:57;30.60;81.60
26982;DHT22;14533;50.848;4.380;2022-08-18T13:09:23;30.30;82.30
26982;DHT22;14533;50.848;4.380;2022-08-18T13:11:49;30.20;82.50
26982;DHT22;14533;50.848;4.380;2022-08-18T13:14:15;30.40;82.50
26982;DHT22;14533;50.848;4.380;2022-08-18T13:16:42;30.50;83.00
26982;DHT22;14533;50.848;4.380;2022-08-18T13:19:13;30.00;84.30
26982;DHT22;14533;50.848;4.380;2022-08-18T13:21:39;30.20;85.60
26982;DHT22;14533;50.848;4.380;2022-08-18T13:24:06;30.40;84.50
26982;DHT22;14533;50.848;4.380;2022-08-18T13:26:37;30.50;84.00
26982;DHT22;14533;50.848;4.380;2022-08-18T13:29:03;30.80;83.20
26982;DHT22;14533;50.848;4.380;2022-08-18T13:31:29;31.00;81.80
26982;DHT22;14533;50.848;4.380;2022-08-18T13:33:56;31.40;81.70
26982;DHT22;14533;50.848;4.380;2022-08-18T13:36:25;31.80;80.00
26982;DHT22;14533;50.848;4.380;2022-08-18T13:38:52;31.90;78.20
26982;DHT22;14533;50.848;4.380;2022-08-18T13:41:19;31.70;77.90
26982;DHT22;14533;50.848;4.380;2022-08-18T13:43:46;31.80;79.50
26982;DHT22;14533;50.848;4.380;2022-08-18T13:46:15;31.80;77.80
26982;DHT22;14533;50.848;4.380;2022-08-18T13:48:43;31.70;79.00
26982;DHT22;14533;50.848;4.380;2022-08-18T13:51:16;31.70;78.00
26982;DHT22;14533;50.848;4.380;2022-08-18T13:53:45;31.60;77.60
26982;DHT22;14533;50.848;4.380;2022-08-18T13:56:11;31.70;77.30
26982;DHT22;14533;50.848;4.380;2022-08-18T13:58:37;31.70;75.90
26982;DHT22;14533;50.848;4.380;2022-08-18T14:01:04;31.70;76.30
26982;DHT22;14533;50.848;4.380;2022-08-18T14:03:32;31.40;77.00
26982;DHT22;14533;50.848;4.380;2022-08-18T14:06:00;31.40;77.30
26982;DHT22;14533;50.848;4.380;2022-08-18T14:08:30;31.40;76.70
26982;DHT22;14533;50.848;4.380;2022-08-18T14:10:58;31.20;79.90
26982;DHT22;14533;50.848;4.380;2022-08-18T14:13:26;30.70;82.20
26982;DHT22;14533;50.848;4.380;2022-08-18T14:15:54;30.30;82.70
26982;DHT22;14533;50.848;4.380;2022-08-18T14:18:24;29.60;85.70
26982;DHT22;14533;50.848;4.380;2022-08-18T14:20:52;29.20;86.70
26982;DHT22;14533;50.848;4.380;2022-08-18T14:23:36;29.10;87.80
26982;DHT22;14533;50.848;4.380;2022-08-18T14:26:21;29.40;88.40
26982;DHT22;14533;50.848;4.380;2022-08-18T14:29:05;29.90;85.50
26982;DHT22;14533;50.848;4.380;2022-08-18T14:31:31;30.20;84.80
26982;DHT22;14533;50.848;4.380;2022-08-18T14:33:58;30.50;83.80
26982;DHT22;14533;50.848;4.380;2022-08-18T14:36:24;30.40;85.10
26982;DHT22;14533;50.848;4.380;2022-08-18T14:38:52;30.70;84.80
26982;DHT22;14533;50.848;4.380;2022-08-18T14:41:18;31.00;84.40
26982;DHT22;14533;50.848;4.380;2022-08-18T14:43:44;31.00;82.90
26982;DHT22;14533;50.848;4.380;2022-08-18T14:46:13;30.10;83.60
26982;DHT22;14533;50.848;4.380;2022-08-18T14:48:39;30.10;84.90
26982;DHT22;14533;50.848;4.380;2022-08-18T14:51:06;30.00;83.80
26982;DHT22;14533;50.848;4.380;2022-08-18T14:53:33;29.70;85.80
26982;DHT22;14533;50.848;4.380;2022-08-18T14:56:02;29.50;86.30
26982;DHT22;14533;50.848;4.380;2022-08-18T14:58:30;29.50;88.70
26982;DHT22;14533;50.848;4.380;2022-08-18T15:00:59;29.70;88.60
26982;DHT22;14533;50.848;4.380;2022-08-18T15:03:29;29.60;88.30
26982;DHT22;14533;50.848;4.380;2022-08-18T15:05:55;29.80;89.00
26982;DHT22;14533;50.848;4.380;2022-08-18T15:08:22;30.40;87.20
26982;DHT22;14533;50.848;4.380;2022-08-18T15:10:48;31.00;85.00
26982;DHT22;14533;50.848;4.380;2022-08-18T15:13:14;31.60;83.10
26982;DHT22;14533;50.848;4.380;2022-08-18T15:15:40;31.90;80.70
26982;DHT22;14533;50.848;4.380;2022-08-18T15:18:09;32.40;79.70
26982;DHT22;14533;50.848;4.380;2022-08-18T15:20:35;32.70;78.10
26982;DHT22;14533;50.848;4.380;2022-08-18T15:23:21;32.20;78.00
26982;DHT22;14533;50.848;4.380;2022-08-18T15:26:06;31.90;78.30
26982;DHT22;14533;50.848;4.380;2022-08-18T15:28:32;31.30;79.80
26982;DHT22;14533;50.848;4.380;2022-08-18T15:30:58;31.00;81.20
26982;DHT22;14533;50.848;4.380;2022-08-18T15:33:23;30.60;81.90
26982;DHT22;14533;50.848;4.380;2022-08-18T15:35:51;30.50;82.70
26982;DHT22;14533;50.848;4.380;2022-08-18T15:38:19;30.70;82.90
26982;DHT22;14533;50.848;4.380;2022-08-18T15:40:52;30.90;81.90
26982;DHT22;14533;50.848;4.380;2022-08-18T15:43:18;30.90;81.40
26982;DHT22;14533;50.848;4.380;2022-08-18T15:45:45;30.80;81.70
26982;DHT22;14533;50.848;4.380;2022-08-18T15:48:17;30.60;82.30
26982;DHT22;14533;50.848;4.380;2022-08-18T15:50:44;30.40;83.10
26982;DHT22;14533;50.848;4.380;2022-08-18T15:53:15;30.00;82.90
26982;DHT22;14533;50.848;4.380;2022-08-18T15:55:43;30.30;82.50
26982;DHT22;14533;50.848;4.380;2022-08-18T15:58:10;30.40;82.10
26982;DHT22;14533;50.848;4.380;2022-08-18T16:00:37;30.20;82.60
26982;DHT22;14533;50.848;4.380;2022-08-18T16:03:05;30.00;84.10
26982;DHT22;14533;50.848;4.380;2022-08-18T16:05:37;30.00;84.70
26982;DHT22;14533;50.848;4.380;2022-08-18T16:08:07;29.70;85.20
26982;DHT22;14533;50.848;4.380;2022-08-18T16:10:36;29.50;86.50
26982;DHT22;14533;50.848;4.380;2022-08-18T16:13:03;29.50;86.80
26982;DHT22;14533;50.848;4.380;2022-08-18T16:15:33;29.50;86.50
26982;DHT22;14533;50.848;4.380;2022-08-18T16:17:59;29.60;86.60
26982;DHT22;14533;50.848;4.380;2022-08-18T16:20:25;29.50;86.90
26982;DHT22;14533;50.848;4.380;2022-08-18T16:22:54;29.70;86.70
26982;DHT22;14533;50.848;4.380;2022-08-18T16:25:22;29.60;86.50
26982;DHT22;14533;50.848;4.380;2022-08-18T16:27:48;29.60;86.60
26982;DHT22;14533;50.848;4.380;2022-08-18T16:30:21;29.40;87.30
26982;DHT22;14533;50.848;4.380;2022-08-18T16:32:47;29.20;88.10
26982;DHT22;14533;50.848;4.380;2022-08-18T16:35:15;29.00;89.10
26982;DHT22;14533;50.848;4.380;2022-08-18T16:37:42;29.00;89.50
26982;DHT22;14533;50.848;4.380;2022-08-18T16:40:08;29.20;89.70
26982;DHT22;14533;50.848;4.380;2022-08-18T16:42:34;29.20;88.40
26982;DHT22;14533;50.848;4.380;2022-08-18T16:45:01;29.10;88.90
26982;DHT22;14533;50.848;4.380;2022-08-18T16:47:31;29.00;89.50
26982;DHT22;14533;50.848;4.380;2022-08-18T16:50:02;28.80;90.10
26982;DHT22;14533;50.848;4.380;2022-08-18T16:52:34;28.70;90.30
26982;DHT22;14533;50.848;4.380;2022-08-18T16:55:01;28.60;90.40
26982;DHT22;14533;50.848;4.380;2022-08-18T16:57:27;28.50;90.60
26982;DHT22;14533;50.848;4.380;2022-08-18T17:00:12;28.60;90.60
26982;DHT22;14533;50.848;4.380;2022-08-18T17:03:01;28.70;90.40
26982;DHT22;14533;50.848;4.380;2022-08-18T17:05:45;28.90;89.60
26982;DHT22;14533;50.848;4.380;2022-08-18T17:08:10;28.90;88.70
26982;DHT22;14533;50.848;4.380;2022-08-18T17:10:38;28.90;88.20
26982;DHT22;14533;50.848;4.380;2022-08-18T17:13:04;28.80;88.30
26982;DHT22;14533;50.848;4.380;2022-08-18T17:15:31;28.50;89.10
26982;DHT22;14533;50.848;4.380;2022-08-18T17:18:00;28.40;89.80
26982;DHT22;14533;50.848;4.380;2022-08-18T17:20:26;28.30;90.00
26982;DHT22;14533;50.848;4.380;2022-08-18T17:22:52;28.30;89.90
26982;DHT22;14533;50.848;4.380;2022-08-18T17:25:21;28.20;90.10
26982;DHT22;14533;50.848;4.380;2022-08-18T17:27:48;28.10;90.50
26982;DHT22;14533;50.848;4.380;2022-08-18T17:30:17;28.10;90.80
26982;DHT22;14533;50.848;4.380;2022-08-18T17:35:23;28.40;90.80
26982;DHT22;14533;50.848;4.380;2022-08-18T17:37:54;28.30;90.60
26982;DHT22;14533;50.848;4.380;2022-08-18T17:40:29;28.20;90.70
26982;DHT22;14533;50.848;4.380;2022-08-18T17:42:59;28.10;90.90
26982;DHT22;14533;50.848;4.380;2022-08-18T17:45:29;27.70;91.40
26982;DHT22;14533;50.848;4.380;2022-08-18T17:48:17;27.60;91.80
26982;DHT22;14533;50.848;4.380;2022-08-18T17:51:00;27.60;92.00
26982;DHT22;14533;50.848;4.380;2022-08-18T17:53:45;27.90;92.50
26982;DHT22;14533;50.848;4.380;2022-08-18T17:56:18;27.80;93.00
26982;DHT22;14533;50.848;4.380;2022-08-18T17:58:53;27.70;93.30
26982;DHT22;14533;50.848;4.380;2022-08-18T18:01:22;27.50;93.90
26982;DHT22;14533;50.848;4.380;2022-08-18T18:03:52;27.50;94.60
26982;DHT22;14533;50.848;4.380;2022-08-18T18:06:30;27.50;94.60
26982;DHT22;14533;50.848;4.380;2022-08-18T18:11:30;27.40;95.20
26982;DHT22;14533;50.848;4.380;2022-08-18T18:19:26;27.40;96.20
26982;DHT22;14533;50.848;4.380;2022-08-18T18:22:19;27.40;96.00
26982;DHT22;14533;50.848;4.380;2022-08-18T18:24:57;27.50;95.60
26982;DHT22;14533;50.848;4.380;2022-08-18T18:33:03;27.10;96.10
26982;DHT22;14533;50.848;4.380;2022-08-18T18:35:51;27.00;96.70
26982;DHT22;14533;50.848;4.380;2022-08-18T18:38:37;26.80;97.30
26982;DHT22;14533;50.848;4.380;2022-08-18T18:41:20;26.70;98.10
26982;DHT22;14533;50.848;4.380;2022-08-18T18:43:51;26.70;98.70
26982;DHT22;14533;50.848;4.380;2022-08-18T18:46:32;26.60;99.30
26982;DHT22;14533;50.848;4.380;2022-08-18T18:57:09;26.60;99.90